Time;durP1;ratioP1;P1;durP2;ratioP2;P2;SDS_P1;SDS_P2;PMS_P1;PMS_P2;Temp;Humidity;BMP_temperature;BMP_pressure;BME280_temperature;BME280_humidity;BME280_pressure;Samples;Min_cycle;Max_cycle;Signal;HPM_P1;HPM_P2
2021/03/15 00:01:53;;;;;;;27.73;12.00;;;;;;;1.99;100.00;98353.73;4287132;81;28620;-78
2021/03/15 00:07:56;;;;;;;26.77;12.58;;;;;;;1.92;100.00;98359.79;4299068;81;28627;-77
2021/03/15 00:13:58;;;;;;;28.25;12.78;;;;;;;1.87;100.00;98351.61;4289035;81;28578;-77
2021/03/15 00:20:00;;;;;;;28.77;12.28;;;;;;;1.98;100.00;98361.38;4245234;81;28566;-77
2021/03/15 00:26:02;;;;;;;28.62;13.40;;;;;;;1.84;100.00;98370.55;4291131;81;28596;-76
2021/03/15 00:32:06;;;;;;;26.62;11.75;;;;;;;1.85;100.00;98365.56;4293370;82;28572;-76
2021/03/15 00:38:08;;;;;;;28.62;12.23;;;;;;;1.85;100.00;98365.56;4292806;81;28663;-77
2021/03/15 00:44:10;;;;;;;28.90;12.68;;;;;;;1.82;100.00;98365.92;4318322;82;28568;-78
2021/03/15 00:50:34;;;;;;;25.60;11.80;;;;;;;2.00;100.00;98360.67;4328233;82;28671;-78
2021/03/15 00:56:38;;;;;;;26.15;12.00;;;;;;;2.06;100.00;98355.94;4308195;81;28629;-78
2021/03/15 01:02:40;;;;;;;24.10;11.83;;;;;;;2.16;100.00;98352.44;4327813;81;28657;-79
2021/03/15 01:08:43;;;;;;;26.62;12.18;;;;;;;1.90;100.00;98355.19;4329438;81;28607;-78
2021/03/15 01:14:47;;;;;;;26.37;12.70;;;;;;;2.03;100.00;98349.18;4325249;81;28621;-78
2021/03/15 01:20:52;;;;;;;25.95;12.03;;;;;;;2.14;100.00;98339.05;4282695;82;28657;-78
2021/03/15 01:26:54;;;;;;;25.55;11.78;;;;;;;2.18;100.00;98327.03;4328164;81;28580;-78
2021/03/15 01:32:56;;;;;;;35.00;17.02;;;;;;;2.03;100.00;98316.03;4329718;81;28598;-76
2021/03/15 01:38:58;;;;;;;40.40;18.07;;;;;;;2.18;100.00;98309.80;4309355;81;28591;-77
2021/03/15 01:45:01;;;;;;;37.98;17.27;;;;;;;2.22;100.00;98309.73;4331262;81;44507;-77
2021/03/15 01:51:03;;;;;;;39.55;17.30;;;;;;;1.97;100.00;98302.21;4328017;81;28556;-78
2021/03/15 01:57:06;;;;;;;37.13;18.00;;;;;;;1.84;100.00;98296.33;4306838;81;44464;-79
2021/03/15 02:03:09;;;;;;;43.78;17.17;;;;;;;1.76;100.00;98291.16;4327022;81;28565;-78
2021/03/15 02:09:13;;;;;;;39.10;17.05;;;;;;;1.68;100.00;98296.11;4323427;81;28963;-78
2021/03/15 02:15:55;;;;;;;36.25;16.57;;;;;;;1.56;100.00;98297.61;4297327;81;28628;-79
2021/03/15 02:22:32;;;;;;;35.23;16.35;;;;;;;1.47;100.00;98285.02;4262699;81;28562;-76
2021/03/15 02:29:00;;;;;;;37.88;16.05;;;;;;;1.29;100.00;98293.42;4314616;81;28601;-76
2021/03/15 02:35:07;;;;;;;36.30;16.37;;;;;;;1.13;100.00;98293.16;4321918;81;28573;-76
2021/03/15 02:41:12;;;;;;;35.25;16.23;;;;;;;0.93;100.00;98299.87;4319692;81;28568;-77
2021/03/15 02:47:19;;;;;;;33.08;16.00;;;;;;;0.69;100.00;98305.02;4329875;81;44113;-75
2021/03/15 02:53:24;;;;;;;39.23;17.50;;;;;;;0.46;100.00;98313.86;4309369;81;28576;-78
2021/03/15 02:59:28;;;;;;;38.53;17.67;;;;;;;0.52;100.00;98326.37;4328872;81;44479;-78
2021/03/15 03:05:33;;;;;;;37.90;16.52;;;;;;;0.54;100.00;98330.96;4339545;81;44508;-78
2021/03/15 03:11:38;;;;;;;33.50;16.10;;;;;;;0.56;100.00;98336.08;4325808;82;44121;-78
2021/03/15 03:17:43;;;;;;;37.25;16.87;;;;;;;0.49;100.00;98330.70;4321565;81;44480;-78
2021/03/15 03:23:52;;;;;;;37.87;16.40;;;;;;;0.41;100.00;98335.56;4309801;81;28674;-77
2021/03/15 03:29:55;;;;;;;39.48;16.77;;;;;;;0.59;100.00;98341.52;4328043;81;44516;-78
2021/03/15 03:35:58;;;;;;;44.13;17.87;;;;;;;0.54;100.00;98338.90;4326180;81;28598;-77
2021/03/15 03:42:02;;;;;;;36.60;17.48;;;;;;;0.70;100.00;98339.72;4324607;81;44476;-77
2021/03/15 03:48:05;;;;;;;44.70;17.55;;;;;;;0.71;100.00;98341.84;4328857;81;43687;-75
2021/03/15 03:54:16;;;;;;;42.33;17.92;;;;;;;0.80;100.00;98344.23;4328812;81;28562;-76
2021/03/15 04:00:19;;;;;;;45.05;19.85;;;;;;;0.97;100.00;98342.18;4328252;81;28574;-76
2021/03/15 04:06:26;;;;;;;39.92;17.82;;;;;;;1.01;100.00;98341.31;4327568;81;28599;-77
2021/03/15 04:12:32;;;;;;;38.30;18.82;;;;;;;1.16;100.00;98332.50;4323532;82;28732;-77
2021/03/15 04:18:37;;;;;;;41.65;19.15;;;;;;;1.05;100.00;98335.95;4327561;81;28561;-78
2021/03/15 04:24:41;;;;;;;40.07;17.20;;;;;;;1.47;100.00;98332.70;4327137;81;28600;-78
2021/03/15 04:30:44;;;;;;;36.95;16.60;;;;;;;1.20;100.00;98323.99;4336802;81;50968;-78
2021/03/15 04:36:49;;;;;;;38.42;16.97;;;;;;;1.09;100.00;98328.45;4329644;81;28572;-78
2021/03/15 04:42:59;;;;;;;39.92;18.17;;;;;;;1.01;100.00;98326.75;4326794;81;44424;-79
2021/03/15 04:49:06;;;;;;;46.90;18.17;;;;;;;1.16;100.00;98319.26;4326622;81;28576;-77
2021/03/15 04:55:07;;;;;;;41.85;18.17;;;;;;;1.31;100.00;98324.02;4328319;81;28597;-77
2021/03/15 05:01:12;;;;;;;38.67;17.65;;;;;;;1.38;100.00;98327.52;4308330;81;28597;-76
2021/03/15 05:07:18;;;;;;;37.60;17.50;;;;;;;1.34;100.00;98327.59;4325654;81;28556;-76
2021/03/15 05:13:23;;;;;;;38.10;17.62;;;;;;;1.33;100.00;98333.91;4327908;81;44424;-78
2021/03/15 05:19:26;;;;;;;41.15;18.40;;;;;;;1.40;100.00;98326.02;4327182;81;28587;-78
2021/03/15 05:25:28;;;;;;;45.12;18.12;;;;;;;1.46;100.00;98326.59;4327558;82;28602;-81
2021/03/15 05:31:31;;;;;;;41.40;18.57;;;;;;;1.73;100.00;98323.36;4329352;82;28588;-78
2021/03/15 05:37:34;;;;;;;36.15;16.57;;;;;;;1.67;100.00;98323.63;4329252;82;28627;-76
2021/03/15 05:44:11;;;;;;;39.93;18.70;;;;;;;1.71;100.00;98318.73;4328184;81;28622;-78
2021/03/15 05:51:02;;;;;;;42.47;18.17;;;;;;;1.83;100.00;98325.67;4311269;81;38185;-77
2021/03/15 05:57:45;;;;;;;41.80;17.10;;;;;;;1.79;100.00;98330.04;4300740;81;28626;-77
2021/03/15 06:04:22;;;;;;;38.10;17.02;;;;;;;1.95;100.00;98332.91;4317846;81;28552;-78
2021/03/15 06:10:38;;;;;;;42.13;17.82;;;;;;;2.08;100.00;98332.69;4336658;81;28568;-78
2021/03/15 06:16:41;;;;;;;40.78;17.90;;;;;;;2.21;100.00;98324.02;4312132;81;28635;-79
2021/03/15 06:22:44;;;;;;;36.70;17.98;;;;;;;2.46;100.00;98332.33;4308052;81;28673;-78
2021/03/15 06:28:46;;;;;;;42.35;19.42;;;;;;;2.60;100.00;98332.38;4319256;81;28552;-82
2021/03/15 06:34:48;;;;;;;44.25;21.45;;;;;;;2.92;100.00;98330.91;4315625;81;28661;-81
2021/03/15 06:40:52;;;;;;;45.35;20.62;;;;;;;3.32;100.00;98324.04;4306271;82;28640;-81
2021/03/15 06:46:54;;;;;;;50.80;21.50;;;;;;;3.48;100.00;98320.17;4316709;81;28611;-85
2021/03/15 06:53:01;;;;;;;46.92;22.05;;;;;;;3.67;100.00;98326.55;4290058;81;28556;-85
2021/03/15 06:59:02;;;;;;;51.60;23.52;;;;;;;4.07;100.00;98319.06;4293441;81;28567;-79
2021/03/15 07:05:12;;;;;;;45.70;20.05;;;;;;;4.25;100.00;98315.76;4276607;83;28571;-79
2021/03/15 07:11:22;;;;;;;51.60;23.52;;;;;;;4.48;100.00;98328.31;4282808;81;28572;-82
2021/03/15 07:17:27;;;;;;;51.73;23.62;;;;;;;4.87;100.00;98333.20;4298626;81;28584;-83
2021/03/15 07:30:39;;;;;;;41.42;18.48;;;;;;;5.26;100.00;98335.88;4591692;75;76934;-82
2021/03/15 07:36:50;;;;;;;46.07;21.03;;;;;;;5.35;100.00;98335.94;4500181;78;28655;-80
2021/03/15 07:43:02;;;;;;;40.05;19.52;;;;;;;5.39;100.00;98346.45;4486812;78;28645;-80
2021/03/15 07:49:04;;;;;;;38.20;18.00;;;;;;;5.47;100.00;98345.41;4501752;78;28560;-82
2021/03/15 07:55:08;;;;;;;30.00;16.48;;;;;;;5.64;100.00;98350.20;4501666;78;28589;-79
2021/03/15 08:01:12;;;;;;;29.80;16.32;;;;;;;5.94;100.00;98346.91;4490065;78;28810;-79
2021/03/15 08:07:17;;;;;;;34.00;17.25;;;;;;;6.28;100.00;98340.78;4496055;78;28617;-79
2021/03/15 08:13:24;;;;;;;36.77;18.02;;;;;;;6.54;100.00;98344.23;4490450;78;28570;-80
2021/03/15 08:19:29;;;;;;;35.43;18.35;;;;;;;6.51;100.00;98344.69;4478787;78;28622;-81
2021/03/15 08:25:31;;;;;;;33.92;15.58;;;;;;;6.53;100.00;98347.41;4484494;78;28553;-82
2021/03/15 08:31:44;;;;;;;26.40;12.43;;;;;;;6.83;100.00;98346.67;4507072;78;28578;-84
2021/03/15 08:37:56;;;;;;;26.90;13.68;;;;;;;6.21;100.00;98351.53;4492279;78;28566;-87
2021/03/15 08:44:00;;;;;;;24.00;12.20;;;;;;;6.63;100.00;98348.76;4503836;78;28573;-79
2021/03/15 08:50:37;;;;;;;22.58;11.22;;;;;;;6.80;100.00;98351.64;4456993;77;28577;-88
2021/03/15 08:56:44;;;;;;;20.48;11.78;;;;;;;6.65;100.00;98343.50;4351225;80;28555;-83
2021/03/15 09:02:49;;;;;;;25.65;12.45;;;;;;;6.35;100.00;98347.39;4509208;77;28545;-82
2021/03/15 09:09:09;;;;;;;22.07;11.20;;;;;;;6.25;100.00;98343.90;4504952;78;28563;-90
2021/03/15 09:15:13;;;;;;;23.45;11.78;;;;;;;6.60;100.00;98327.84;4520966;78;28534;-91
2021/03/15 09:21:30;;;;;;;20.72;11.60;;;;;;;6.79;100.00;98324.13;4494963;78;28631;-88
2021/03/15 09:27:38;;;;;;;27.50;11.03;;;;;;;6.96;100.00;98317.64;4483252;78;28583;-85
2021/03/15 09:33:41;;;;;;;21.07;10.00;;;;;;;6.88;100.00;98313.94;4491883;78;28537;-87
2021/03/15 09:39:45;;;;;;;18.32;10.15;;;;;;;7.33;100.00;98298.02;4492482;78;28631;-87
2021/03/15 09:45:56;;;;;;;23.87;11.85;;;;;;;7.32;100.00;98290.22;4506150;77;28554;-92
2021/03/15 09:52:16;;;;;;;22.15;11.70;;;;;;;7.58;100.00;98286.86;4512505;78;28624;-90
2021/03/15 09:58:25;;;;;;;24.18;10.75;;;;;;;8.33;100.00;98271.14;4506172;78;28713;-86
2021/03/15 10:04:33;;;;;;;22.15;11.33;;;;;;;8.58;100.00;98266.08;4474324;78;28575;-93
2021/03/15 10:10:51;;;;;;;18.42;10.50;;;;;;;8.51;100.00;98266.22;4474257;78;28562;-88
2021/03/15 10:17:20;;;;;;;16.05;9.43;;;;;;;8.32;100.00;98263.66;4488778;78;28536;-84
2021/03/15 10:23:40;;;;;;;16.48;9.15;;;;;;;8.22;100.00;98271.47;4393704;79;85392;-87
2021/03/15 10:29:58;;;;;;;19.50;10.35;;;;;;;8.29;100.00;98265.98;4280177;81;28627;-82
2021/03/15 10:36:01;;;;;;;21.95;11.63;;;;;;;7.96;100.00;98266.87;4325941;81;28586;-82
2021/03/15 10:42:06;;;;;;;21.75;12.18;;;;;;;7.43;100.00;98270.71;4314099;80;28585;-81
2021/03/15 10:48:10;;;;;;;20.05;11.28;;;;;;;7.67;100.00;98256.06;4321012;81;28601;-82
2021/03/15 10:54:33;;;;;;;19.02;10.68;;;;;;;8.24;100.00;98247.94;4371358;79;84975;-81
2021/03/15 11:00:45;;;;;;;21.87;11.05;;;;;;;8.51;100.00;98246.92;4318119;80;28560;-83
2021/03/15 11:06:48;;;;;;;12.33;6.50;;;;;;;8.77;100.00;98242.59;4326638;80;28538;-80
2021/03/15 11:12:55;;;;;;;12.25;6.67;;;;;;;8.76;90.91;98235.09;4325910;80;28605;-82
2021/03/15 11:19:17;;;;;;;17.10;8.40;;;;;;;9.25;96.84;98231.11;4316529;80;28558;-81
2021/03/15 11:25:23;;;;;;;18.65;10.88;;;;;;;9.38;94.23;98223.83;4298574;80;28595;-82
2021/03/15 11:31:37;;;;;;;20.35;12.13;;;;;;;9.11;93.14;98217.22;4393393;79;71989;-82
2021/03/15 11:37:48;;;;;;;21.65;11.83;;;;;;;8.36;96.92;98221.14;4310162;80;28618;-81
2021/03/15 11:43:55;;;;;;;24.25;12.73;;;;;;;7.74;100.00;98215.27;4282783;80;28537;-80
2021/03/15 11:49:58;;;;;;;24.57;11.38;;;;;;;7.87;100.00;98199.50;4324273;80;28543;-80
2021/03/15 11:56:02;;;;;;;16.05;7.85;;;;;;;7.84;100.00;98203.16;4323852;81;28675;-81
2021/03/15 12:02:05;;;;;;;16.87;8.18;;;;;;;7.63;100.00;98198.69;4301675;80;28594;-80
2021/03/15 12:08:07;;;;;;;21.10;9.13;;;;;;;7.76;99.17;98189.11;4331259;81;28590;-80
2021/03/15 12:14:10;;;;;;;15.13;8.50;;;;;;;7.85;100.00;98189.56;4322459;81;28630;-82
2021/03/15 12:20:14;;;;;;;13.00;6.35;;;;;;;8.19;99.83;98180.91;4318411;80;28605;-82
2021/03/15 12:26:26;;;;;;;14.10;6.40;;;;;;;8.06;89.46;98174.73;4590006;76;85321;-79
2021/03/15 12:32:30;;;;;;;10.00;5.87;;;;;;;8.42;87.83;98171.16;4483499;78;28584;-80
2021/03/15 12:38:34;;;;;;;13.13;6.40;;;;;;;8.75;87.03;98168.31;4508453;78;28593;-82
2021/03/15 12:44:36;;;;;;;14.85;5.87;;;;;;;8.85;84.68;98167.16;4495294;78;28602;-82
2021/03/15 12:50:40;;;;;;;8.20;4.80;;;;;;;8.93;80.70;98164.61;4459083;78;28609;-82
2021/03/15 12:56:43;;;;;;;10.40;6.03;;;;;;;8.83;78.17;98162.58;4500228;78;28665;-85
2021/03/15 13:02:48;;;;;;;10.43;6.10;;;;;;;8.84;82.61;98170.90;4462308;78;28657;-84
2021/03/15 13:08:51;;;;;;;8.35;4.60;;;;;;;8.98;77.51;98166.56;4368137;80;28610;-83
2021/03/15 13:14:56;;;;;;;8.53;5.28;;;;;;;8.91;74.00;98167.55;4379904;80;28639;-80
2021/03/15 13:21:03;;;;;;;8.48;5.12;;;;;;;8.74;74.03;98166.70;4362140;80;28579;-79
2021/03/15 13:27:07;;;;;;;10.75;6.62;;;;;;;8.41;73.60;98164.98;4358156;80;28611;-81
2021/03/15 13:33:11;;;;;;;13.05;6.33;;;;;;;8.56;73.50;98169.85;4378840;80;28545;-80
2021/03/15 13:39:15;;;;;;;10.18;5.83;;;;;;;8.74;72.22;98160.00;4389064;80;28615;-80
2021/03/15 13:45:19;;;;;;;10.60;6.17;;;;;;;9.00;70.84;98158.57;4349354;80;28926;-78
2021/03/15 13:51:21;;;;;;;9.58;5.37;;;;;;;9.06;70.52;98144.20;4352536;80;28630;-77
2021/03/15 13:57:24;;;;;;;7.10;4.53;;;;;;;9.15;70.10;98147.28;4329633;80;28641;-80
2021/03/15 14:03:41;;;;;;;8.05;4.92;;;;;;;9.06;66.82;98138.02;4576803;76;85223;-80
2021/03/15 14:09:48;;;;;;;9.30;4.95;;;;;;;8.60;69.75;98140.72;4481164;78;28601;-79
2021/03/15 14:15:53;;;;;;;11.35;5.92;;;;;;;8.56;69.23;98134.22;4481379;78;28584;-82
2021/03/15 14:22:04;;;;;;;10.03;5.03;;;;;;;8.59;69.74;98139.09;4515785;78;28570;-82
2021/03/15 14:28:17;;;;;;;6.35;4.15;;;;;;;8.22;72.79;98139.71;4384734;79;84553;-82
2021/03/15 14:34:22;;;;;;;7.08;4.35;;;;;;;8.19;73.40;98143.41;4272220;81;28588;-81
2021/03/15 14:40:26;;;;;;;8.00;4.40;;;;;;;7.88;70.12;98151.61;4318526;81;28557;-82
2021/03/15 14:46:29;;;;;;;7.83;3.83;;;;;;;7.75;69.78;98148.66;4163440;83;28631;-81
2021/03/15 14:52:53;;;;;;;6.62;3.95;;;;;;;7.52;69.84;98148.97;4477520;77;85327;-81
2021/03/15 14:58:59;;;;;;;5.78;3.58;;;;;;;7.55;70.17;98145.02;4297939;81;28546;-82
2021/03/15 15:05:03;;;;;;;10.03;4.30;;;;;;;7.63;67.11;98143.84;4257131;81;28571;-84
2021/03/15 15:11:08;;;;;;;8.48;3.77;;;;;;;7.66;66.09;98147.41;4257993;81;28575;-82
2021/03/15 15:17:12;;;;;;;7.80;4.35;;;;;;;7.78;67.13;98144.19;4279192;81;28562;-82
2021/03/15 15:23:14;;;;;;;9.03;4.37;;;;;;;7.62;66.38;98143.56;4260321;83;28592;-81
2021/03/15 15:29:17;;;;;;;10.10;4.78;;;;;;;7.78;66.74;98145.53;4252662;82;28573;-83
2021/03/15 15:35:20;;;;;;;10.05;6.12;;;;;;;7.86;68.39;98141.67;4236280;81;28553;-82
2021/03/15 15:41:22;;;;;;;14.93;6.85;;;;;;;7.73;71.42;98151.30;4262981;83;28553;-82
2021/03/15 15:47:25;;;;;;;10.32;5.65;;;;;;;7.61;73.00;98149.45;4309218;81;28601;-80
2021/03/15 15:53:27;;;;;;;9.30;5.30;;;;;;;7.49;73.02;98149.44;4255126;83;28603;-80
2021/03/15 15:59:31;;;;;;;10.35;5.47;;;;;;;7.37;73.45;98156.11;4342307;81;28615;-80
2021/03/15 16:05:35;;;;;;;9.15;5.33;;;;;;;7.35;75.19;98156.87;4235810;81;28578;-78
2021/03/15 16:11:37;;;;;;;9.68;5.30;;;;;;;7.30;74.65;98160.78;4323060;80;28574;-77
2021/03/15 16:17:39;;;;;;;10.10;5.40;;;;;;;7.02;77.67;98164.09;4270487;81;28648;-77
2021/03/15 16:23:43;;;;;;;9.20;5.42;;;;;;;6.98;78.78;98168.56;4271182;81;28622;-80
2021/03/15 16:29:45;;;;;;;8.15;5.10;;;;;;;7.04;78.79;98168.70;4322868;80;28625;-79
2021/03/15 16:35:48;;;;;;;10.32;5.28;;;;;;;6.93;77.99;98171.13;4243661;81;28573;-81
2021/03/15 16:41:50;;;;;;;11.65;5.58;;;;;;;6.92;78.01;98174.81;4314165;80;28594;-82
2021/03/15 16:47:52;;;;;;;10.08;5.03;;;;;;;6.91;77.49;98181.20;4260939;81;28612;-82
2021/03/15 16:53:55;;;;;;;11.05;4.85;;;;;;;6.85;78.29;98187.48;4200063;84;28661;-81
2021/03/15 16:59:57;;;;;;;13.43;5.10;;;;;;;6.80;78.64;98184.15;4221142;82;28642;-80
2021/03/15 17:05:59;;;;;;;12.10;5.22;;;;;;;6.73;79.15;98196.78;4222037;84;28640;-81
2021/03/15 17:12:03;;;;;;;9.18;4.97;;;;;;;6.61;78.97;98191.41;4197987;84;28687;-81
2021/03/15 17:24:29;;;;;;;9.10;4.42;;;;;;;6.41;79.72;98198.32;4464186;79;86987;-83
2021/03/15 17:30:32;;;;;;;11.35;5.10;;;;;;;6.19;83.13;98200.63;4415787;80;28565;-81
2021/03/15 17:36:37;;;;;;;10.08;5.28;;;;;;;6.04;83.22;98203.67;4427434;80;28561;-80
2021/03/15 17:42:39;;;;;;;14.05;6.37;;;;;;;5.88;83.02;98211.70;4400148;80;28587;-79
2021/03/15 17:48:43;;;;;;;12.40;5.12;;;;;;;5.85;83.37;98217.78;4406697;80;28620;-75
2021/03/15 17:54:51;;;;;;;9.38;5.50;;;;;;;5.73;86.32;98216.88;4413088;80;28640;-84
2021/03/15 18:00:58;;;;;;;9.88;5.22;;;;;;;5.55;88.27;98217.67;4401903;80;28936;-81
2021/03/15 18:07:02;;;;;;;14.43;5.42;;;;;;;5.32;91.69;98219.09;4410137;80;28540;-81
2021/03/15 18:13:05;;;;;;;12.10;5.28;;;;;;;5.23;91.26;98223.85;4404995;80;28578;-79
2021/03/15 18:19:09;;;;;;;10.15;5.85;;;;;;;4.97;95.08;98222.19;4400753;79;28570;-81
2021/03/15 18:25:13;;;;;;;11.22;5.40;;;;;;;4.87;90.68;98217.34;4384773;80;28589;-81
2021/03/15 18:31:16;;;;;;;13.20;6.15;;;;;;;4.71;92.35;98210.67;4369460;80;28681;-82
2021/03/15 18:37:19;;;;;;;13.70;6.60;;;;;;;4.50;97.21;98218.44;4358442;80;28600;-81
2021/03/15 18:43:21;;;;;;;16.77;8.38;;;;;;;4.19;100.00;98222.15;4365219;80;28550;-81
2021/03/15 18:49:23;;;;;;;13.70;6.35;;;;;;;4.11;100.00;98224.50;4366671;80;28603;-82
2021/03/15 18:55:26;;;;;;;12.95;6.12;;;;;;;3.90;100.00;98221.11;4363189;81;28550;-82
2021/03/15 19:01:28;;;;;;;12.55;6.40;;;;;;;3.58;100.00;98220.92;4359222;81;28581;-85
2021/03/15 19:07:31;;;;;;;17.65;8.00;;;;;;;3.45;100.00;98207.65;4357872;81;28562;-77
2021/03/15 19:13:33;;;;;;;12.75;6.62;;;;;;;3.37;100.00;98217.14;4345567;81;28657;-81
2021/03/15 19:19:35;;;;;;;16.40;7.78;;;;;;;3.27;100.00;98215.71;4368836;80;28578;-83
2021/03/15 19:25:37;;;;;;;16.25;8.15;;;;;;;2.99;100.00;98208.76;4374348;80;28600;-82
2021/03/15 19:31:39;;;;;;;16.73;8.48;;;;;;;2.87;100.00;98217.02;4367742;81;28629;-80
2021/03/15 19:37:43;;;;;;;19.02;9.28;;;;;;;2.68;100.00;98217.26;4376529;80;28619;-83
2021/03/15 19:43:45;;;;;;;20.60;9.88;;;;;;;2.53;100.00;98221.39;4362092;81;28613;-84
2021/03/15 19:49:49;;;;;;;22.65;11.43;;;;;;;2.39;100.00;98224.01;4355594;80;28587;-80
2021/03/15 19:55:51;;;;;;;29.10;13.98;;;;;;;2.25;100.00;98224.45;4365379;81;28542;-82
2021/03/15 20:01:53;;;;;;;28.05;13.83;;;;;;;2.28;100.00;98232.53;4356813;80;28592;-82
2021/03/15 20:07:55;;;;;;;31.05;14.75;;;;;;;2.07;100.00;98228.44;4336675;80;28603;-81
2021/03/15 20:13:57;;;;;;;27.20;12.53;;;;;;;1.91;100.00;98232.23;4364255;80;28556;-80
2021/03/15 20:20:06;;;;;;;40.33;18.40;;;;;;;1.79;100.00;98232.46;4347603;80;28583;-80
2021/03/15 20:26:08;;;;;;;38.60;17.00;;;;;;;1.68;100.00;98225.88;4289701;82;28583;-80
2021/03/15 20:32:11;;;;;;;29.45;14.50;;;;;;;1.55;100.00;98235.88;4291692;81;28601;-81
2021/03/15 20:38:16;;;;;;;34.23;16.77;;;;;;;1.32;100.00;98234.27;4274226;82;28604;-85
2021/03/15 20:44:19;;;;;;;41.02;20.85;;;;;;;1.23;100.00;98230.92;4250879;82;28624;-80
2021/03/15 20:50:22;;;;;;;43.78;20.95;;;;;;;1.22;100.00;98237.75;4274602;82;28553;-80
2021/03/15 20:56:24;;;;;;;41.20;20.50;;;;;;;1.15;100.00;98239.51;4282086;82;43814;-82
2021/03/15 21:02:26;;;;;;;40.20;18.45;;;;;;;0.99;100.00;98248.52;4291488;82;28666;-80
2021/03/15 21:08:34;;;;;;;42.83;18.45;;;;;;;0.95;100.00;98248.08;4280022;82;28582;-81
2021/03/15 21:14:36;;;;;;;46.13;21.68;;;;;;;0.79;100.00;98246.00;4282398;82;28575;-79
2021/03/15 21:20:41;;;;;;;47.85;22.42;;;;;;;0.73;100.00;98248.05;4280771;82;28553;-79
2021/03/15 21:26:43;;;;;;;39.27;18.35;;;;;;;0.68;100.00;98251.26;4226316;83;28657;-78
2021/03/15 21:32:45;;;;;;;44.23;21.90;;;;;;;0.52;100.00;98253.62;4230837;83;28634;-79
2021/03/15 21:38:49;;;;;;;48.15;21.20;;;;;;;0.48;100.00;98247.07;4217864;83;44083;-78
2021/03/15 21:44:51;;;;;;;45.70;21.75;;;;;;;0.31;100.00;98253.56;4228510;83;43732;-79
2021/03/15 21:50:54;;;;;;;48.83;24.67;;;;;;;0.16;100.00;98251.77;4227738;83;44466;-77
2021/03/15 21:56:56;;;;;;;52.27;22.60;;;;;;;0.13;100.00;98252.11;4223458;83;44127;-78
2021/03/15 22:02:58;;;;;;;54.13;24.37;;;;;;;-0.05;100.00;98249.34;4217136;83;44150;-77
2021/03/15 22:09:01;;;;;;;49.63;24.47;;;;;;;-0.13;100.00;98252.56;4228242;83;44478;-78
2021/03/15 22:15:07;;;;;;;54.70;25.80;;;;;;;0.06;100.00;98249.89;4233388;83;43219;-78
2021/03/15 22:21:09;;;;;;;60.63;25.75;;;;;;;-0.12;100.00;98252.88;4231504;83;42024;-77
2021/03/15 22:27:13;;;;;;;55.05;24.40;;;;;;;-0.18;100.00;98252.61;4238034;83;44106;-78
2021/03/15 22:33:16;;;;;;;54.48;24.18;;;;;;;-0.23;100.00;98247.55;4222474;83;28580;-79
2021/03/15 22:39:19;;;;;;;57.45;24.57;;;;;;;-0.26;100.00;98252.69;4388911;80;28555;-78
2021/03/15 22:45:21;;;;;;;56.58;24.50;;;;;;;-0.28;100.00;98246.77;4380896;80;44114;-79
2021/03/15 22:51:27;;;;;;;54.03;24.47;;;;;;;-0.26;100.00;98247.89;4354198;81;44123;-79
2021/03/15 22:57:29;;;;;;;53.83;25.30;;;;;;;-0.32;100.00;98251.59;4351937;81;43670;-77
2021/03/15 23:03:31;;;;;;;52.03;24.27;;;;;;;-0.50;100.00;98242.69;4360945;81;44080;-77
2021/03/15 23:09:33;;;;;;;55.00;24.92;;;;;;;-0.56;100.00;98246.03;4367410;81;43213;-75
2021/03/15 23:15:36;;;;;;;52.50;23.92;;;;;;;-0.68;100.00;98244.30;4359369;81;43989;-77
2021/03/15 23:21:41;;;;;;;55.48;24.98;;;;;;;-0.72;100.00;98252.27;4365075;81;43689;-78
2021/03/15 23:27:46;;;;;;;59.25;26.62;;;;;;;-0.75;100.00;98259.23;4341490;81;43167;-77
2021/03/15 23:33:49;;;;;;;55.43;25.70;;;;;;;-0.86;100.00;98256.02;4382043;81;43267;-76
2021/03/15 23:39:51;;;;;;;58.10;24.65;;;;;;;-0.92;100.00;98265.94;4378642;80;44104;-76
2021/03/15 23:45:53;;;;;;;60.60;28.45;;;;;;;-0.96;100.00;98270.42;4386662;80;43101;-77
2021/03/15 23:51:56;;;;;;;67.85;29.95;;;;;;;-1.14;100.00;98279.46;4366239;80;44139;-77
2021/03/15 23:58:17;;;;;;;65.25;28.92;;;;;;;-1.12;100.00;98274.83;4381900;80;43410;-77
